Terminal Aerodrome Forecast
Issued by NWS

Home | Current Version | Previous Version | Text Only | Print | Product List | Glossary On
Versions: 1 2 3 4 5 6 7 8 9 10 11 12 13 14 15 16 17 18 19 20 21
000
FTUS46 KPQR 271728
TAFONP
TAF
KONP 271728Z 2718/2818 32010KT P6SM -SHRA SCT020 BKN040 BKN060
      TEMPO 2718/2722 -SHRA BKN015 OVC030
     FM280000 32011KT P6SM VCSH SCT030 BKN045
     FM280800 34005KT P6SM SCT030 BKN045
     FM281300 05004KT P6SM BKN020=

USA.gov is the U.S. government's official web portal to all federal, state and local government web resources and services.